createdAt,value
2023-11-12T00:05:49.927Z,6.29
2023-11-12T00:09:17.593Z,6.25
2023-11-12T00:12:29.019Z,6.23
2023-11-12T00:16:01.816Z,6.21
2023-11-12T00:19:17.472Z,6.21
2023-11-12T00:22:51.002Z,6.20
2023-11-12T00:26:11.804Z,6.20
2023-11-12T00:30:01.779Z,6.21
2023-11-12T01:02:23.354Z,6.13
2023-11-12T12:32:21.182Z,10.99
2023-11-12T12:36:14.510Z,10.98
2023-11-12T12:40:09.564Z,10.66
2023-11-12T12:43:56.544Z,10.62
2023-11-12T13:03:10.845Z,10.27
2023-11-12T13:07:03.680Z,10.16
2023-11-12T13:10:58.714Z,9.92
2023-11-12T13:22:51.944Z,9.78
2023-11-12T13:26:43.790Z,9.49
2023-11-12T13:30:37.803Z,9.29
2023-11-12T13:34:31.134Z,9.13
2023-11-12T13:53:41.367Z,9.12
2023-11-12T13:57:20.361Z,9.19
2023-11-12T14:01:12.940Z,9.20
2023-11-12T14:04:31.728Z,9.15
2023-11-12T14:08:07.087Z,9.08
2023-11-12T14:27:06.236Z,8.16
2023-11-12T14:30:58.479Z,7.98
2023-11-12T14:34:50.692Z,7.85
2023-11-12T14:46:48.918Z,7.36
2023-11-12T14:50:42.228Z,7.13
2023-11-12T15:06:10.753Z,6.52
2023-11-12T15:10:03.401Z,6.35
2023-11-12T15:13:55.934Z,6.27
2023-11-12T15:29:38.824Z,6.04
2023-11-12T15:33:31.068Z,5.97
2023-11-12T15:37:24.569Z,5.90
2023-11-12T15:41:17.255Z,5.85
2023-11-12T15:53:22.249Z,5.79
2023-11-12T15:57:14.157Z,5.70
2023-11-12T16:01:07.842Z,5.70
2023-11-12T16:16:48.196Z,5.74
2023-11-12T16:20:40.606Z,5.66
2023-11-12T16:24:32.872Z,5.63
2023-11-12T16:36:25.782Z,5.62
2023-11-12T16:40:27.458Z,5.57
2023-11-12T16:44:19.555Z,5.55
2023-11-12T16:48:13.226Z,5.54
2023-11-12T17:07:49.320Z,5.37
2023-11-12T17:11:43.513Z,5.27
2023-11-12T17:26:46.485Z,5.27
2023-11-12T17:30:05.780Z,5.24
2023-11-12T17:33:34.291Z,5.22
2023-11-12T17:36:48.905Z,5.23
2023-11-12T17:40:17.998Z,5.20
2023-11-12T17:43:57.514Z,5.16
2023-11-12T17:47:30.034Z,5.11
2023-11-12T17:50:47.844Z,5.02
2023-11-12T17:54:07.457Z,4.92
2023-11-12T17:57:39.947Z,4.71
2023-11-12T18:01:21.935Z,4.49
2023-11-12T18:04:19.335Z,4.31
2023-11-12T18:08:00.494Z,4.08
2023-11-12T18:11:24.641Z,3.85
2023-11-12T18:28:39.046Z,3.45
2023-11-12T18:42:11.973Z,3.29
2023-11-12T19:42:18.015Z,1.60
2023-11-12T19:45:37.972Z,1.58
2023-11-12T19:49:10.867Z,1.62
2023-11-12T19:52:24.930Z,1.67
2023-11-12T19:55:35.645Z,1.61
2023-11-12T19:59:04.843Z,1.61
2023-11-12T20:02:56.845Z,1.60
2023-11-12T20:09:57.100Z,1.64
2023-11-12T20:13:35.238Z,1.57
2023-11-12T20:16:52.241Z,1.42
2023-11-12T20:20:25.587Z,1.30
2023-11-12T20:23:56.708Z,1.22
2023-11-12T20:27:16.628Z,1.15
2023-11-12T20:31:01.194Z,1.07
2023-11-12T20:34:26.823Z,0.92
2023-11-12T20:38:03.625Z,0.86
2023-11-12T20:41:40.083Z,0.75
2023-11-12T20:45:23.922Z,0.64
2023-11-12T20:49:17.325Z,0.60
2023-11-12T21:17:32.623Z,0.20
2023-11-12T21:21:25.652Z,0.14
2023-11-12T21:25:18.194Z,0.08
2023-11-12T21:29:11.203Z,-0.05
2023-11-12T21:33:02.321Z,-0.11
2023-11-12T21:44:38.873Z,-0.11
2023-11-12T21:48:07.773Z,-0.16
2023-11-12T21:51:16.401Z,-0.21
2023-11-12T21:54:33.772Z,-0.33
2023-11-12T21:57:50.449Z,-0.38
2023-11-12T22:01:16.548Z,-0.42
2023-11-12T22:04:50.098Z,-0.45
2023-11-12T22:08:32.011Z,-0.45
2023-11-12T22:11:35.974Z,-0.53
2023-11-12T22:15:21.939Z,-0.57
2023-11-12T22:18:06.386Z,-0.64
2023-11-12T22:21:27.198Z,-0.65
2023-11-12T22:24:43.023Z,-0.74
2023-11-12T22:28:13.299Z,-0.84
2023-11-12T22:31:56.217Z,-0.93
2023-11-12T22:35:08.123Z,-0.95
2023-11-12T22:38:03.732Z,-1.01
2023-11-12T22:41:05.032Z,-1.04
2023-11-12T22:44:14.072Z,-1.06
2023-11-12T22:47:26.849Z,-1.14
2023-11-12T22:51:11.768Z,-1.15
2023-11-12T22:53:54.508Z,-1.21
2023-11-12T22:56:46.848Z,-1.24
2023-11-12T23:00:02.043Z,-1.31
2023-11-12T23:03:15.655Z,-1.36
2023-11-12T23:06:23.083Z,-1.38
2023-11-12T23:09:50.302Z,-1.50
2023-11-12T23:13:15.938Z,-1.58
2023-11-12T23:16:30.262Z,-1.64
2023-11-12T23:19:43.420Z,-1.67
2023-11-12T23:22:46.077Z,-1.67
2023-11-12T23:26:23.750Z,-1.68
2023-11-12T23:29:35.156Z,-1.71
2023-11-12T23:32:44.230Z,-1.73
2023-11-12T23:36:37.558Z,-1.79
2023-11-12T23:40:25.104Z,-1.82
2023-11-12T23:43:59.519Z,-1.84
2023-11-12T23:47:25.679Z,-1.89
2023-11-12T23:50:38.028Z,-1.92
2023-11-12T23:53:32.983Z,-1.93
2023-11-12T23:57:02.425Z,-1.93
